Time;durP1;ratioP1;P1;durP2;ratioP2;P2;SDS_P1;SDS_P2;PMS_P1;PMS_P2;Temp;Humidity;BMP_temperature;BMP_pressure;BME280_temperature;BME280_humidity;BME280_pressure;Samples;Min_cycle;Max_cycle;Signal;HPM_P1;HPM_P2
2023/01/01 00:02:20;;;;;;;47.33;26.58;;;13.10;99.90;;;;;;5053900;28;20099;-58
2023/01/01 00:04:48;;;;;;;53.67;28.58;;;13.10;99.90;;;;;;5053738;28;20045;-63
2023/01/01 00:07:14;;;;;;;50.97;33.22;;;13.10;99.90;;;;;;5052843;28;20057;-64
2023/01/01 00:12:25;;;;;;;54.67;30.73;;;13.00;99.90;;;;;;5054284;28;20092;-59
2023/01/01 00:14:52;;;;;;;60.50;36.28;;;13.00;99.90;;;;;;5045001;28;20080;-58
2023/01/01 00:17:20;;;;;;;60.92;40.05;;;13.00;99.90;;;;;;5052494;28;20076;-57
2023/01/01 00:19:47;;;;;;;63.33;41.03;;;13.00;99.90;;;;;;5052859;28;20140;-57
2023/01/01 00:22:14;;;;;;;55.63;35.40;;;12.90;99.90;;;;;;5051725;28;20077;-58
2023/01/01 00:24:41;;;;;;;73.18;42.95;;;12.90;99.90;;;;;;5044884;28;20080;-58
2023/01/01 00:27:07;;;;;;;72.25;43.00;;;12.90;99.90;;;;;;5052654;28;20562;-64
2023/01/01 00:29:34;;;;;;;61.85;40.65;;;12.80;99.90;;;;;;5057659;28;20088;-67
2023/01/01 00:32:01;;;;;;;68.05;39.95;;;12.80;99.90;;;;;;5062515;28;20049;-68
2023/01/01 00:34:29;;;;;;;80.22;49.10;;;12.80;99.90;;;;;;5059754;28;20378;-60
2023/01/01 00:36:57;;;;;;;80.32;52.25;;;12.80;99.90;;;;;;5056834;28;20072;-64
2023/01/01 00:39:23;;;;;;;61.53;37.83;;;12.80;99.90;;;;;;5056044;28;20053;-63
2023/01/01 00:41:50;;;;;;;61.83;38.80;;;12.80;99.90;;;;;;5055538;28;20053;-62
2023/01/01 00:44:17;;;;;;;61.95;36.75;;;12.80;99.90;;;;;;5054847;28;20401;-62
2023/01/01 00:46:44;;;;;;;65.75;36.20;;;12.80;99.90;;;;;;5054894;28;20076;-64
2023/01/01 00:49:11;;;;;;;55.08;34.95;;;12.80;99.90;;;;;;5054271;28;20044;-63
2023/01/01 00:51:39;;;;;;;56.80;33.40;;;12.80;99.90;;;;;;5055821;28;20049;-63
2023/01/01 00:54:06;;;;;;;49.10;31.40;;;12.80;99.90;;;;;;5052299;28;20056;-62
2023/01/01 00:56:34;;;;;;;52.97;28.55;;;12.80;99.90;;;;;;5054197;28;20084;-64
2023/01/01 00:59:00;;;;;;;55.72;31.73;;;12.80;99.90;;;;;;5055409;28;20103;-64
2023/01/01 01:01:27;;;;;;;45.20;25.73;;;12.80;99.90;;;;;;5054751;28;20090;-63
2023/01/01 01:03:54;;;;;;;44.75;25.52;;;12.90;99.90;;;;;;5053987;28;20079;-62
2023/01/01 01:06:21;;;;;;;41.97;26.02;;;12.90;99.90;;;;;;5052857;28;20076;-64
2023/01/01 01:08:49;;;;;;;51.92;25.42;;;12.90;99.90;;;;;;5053584;28;20073;-63
2023/01/01 01:11:17;;;;;;;46.83;26.27;;;12.90;99.90;;;;;;5053597;28;20049;-64
2023/01/01 01:13:45;;;;;;;52.35;29.95;;;12.90;99.90;;;;;;5054577;28;20095;-59
2023/01/01 01:16:13;;;;;;;46.90;25.17;;;12.90;99.90;;;;;;5053252;28;20129;-65
2023/01/01 01:18:40;;;;;;;44.92;26.30;;;12.90;99.90;;;;;;5053992;28;20053;-61
2023/01/01 01:21:07;;;;;;;46.97;24.70;;;12.90;99.90;;;;;;5052747;28;20544;-63
2023/01/01 01:23:34;;;;;;;42.40;24.98;;;12.90;99.90;;;;;;5053656;28;20095;-62
2023/01/01 01:26:09;;;;;;;48.30;26.13;;;13.00;99.90;;;;;;5051551;28;20496;-62
2023/01/01 01:28:36;;;;;;;45.33;27.35;;;13.00;99.90;;;;;;5052872;28;20436;-62
2023/01/01 01:31:03;;;;;;;42.88;27.08;;;13.00;99.90;;;;;;5052805;28;20084;-62
2023/01/01 01:33:30;;;;;;;44.97;25.88;;;13.00;99.90;;;;;;5050344;28;20052;-62
2023/01/01 01:35:56;;;;;;;48.78;25.48;;;13.00;99.90;;;;;;5053594;28;20048;-66
2023/01/01 01:38:23;;;;;;;48.78;26.70;;;13.00;99.90;;;;;;5055593;28;20056;-66
2023/01/01 01:40:50;;;;;;;49.03;25.70;;;13.00;99.90;;;;;;5056068;28;20052;-65
2023/01/01 01:43:23;;;;;;;53.58;23.35;;;13.00;99.90;;;;;;5054546;28;20049;-64
2023/01/01 01:45:50;;;;;;;50.70;25.83;;;13.00;99.90;;;;;;5052961;28;20044;-66
2023/01/01 01:48:17;;;;;;;49.05;26.35;;;13.00;99.90;;;;;;5056141;28;20155;-64
2023/01/01 01:50:44;;;;;;;45.97;24.98;;;13.00;99.90;;;;;;5059325;28;20084;-62
2023/01/01 01:53:12;;;;;;;48.42;24.20;;;13.00;99.90;;;;;;5059889;28;20089;-63
2023/01/01 01:55:40;;;;;;;46.63;25.92;;;13.00;99.90;;;;;;5060574;28;20049;-64
2023/01/01 01:58:07;;;;;;;39.33;23.30;;;12.90;99.90;;;;;;5059870;28;20477;-66
2023/01/01 02:00:35;;;;;;;40.72;21.92;;;12.90;99.90;;;;;;5058372;28;20064;-64
2023/01/01 02:03:03;;;;;;;38.80;21.92;;;12.90;99.90;;;;;;5058935;28;20049;-69
2023/01/01 02:05:30;;;;;;;47.00;25.25;;;12.90;99.90;;;;;;5057405;28;20041;-65
2023/01/01 02:07:57;;;;;;;38.00;22.52;;;12.90;99.90;;;;;;5055994;28;20130;-63
2023/01/01 02:10:24;;;;;;;42.13;20.20;;;12.90;99.90;;;;;;5051014;28;20053;-55
2023/01/01 02:12:51;;;;;;;34.50;20.52;;;12.90;99.90;;;;;;5053734;28;20072;-63
2023/01/01 02:15:18;;;;;;;38.67;20.85;;;12.90;99.90;;;;;;5051790;28;20111;-62
2023/01/01 02:17:52;;;;;;;38.65;17.50;;;12.90;99.90;;;;;;5050510;28;20437;-61
2023/01/01 02:20:40;;;;;;;39.55;18.13;;;13.00;99.90;;;;;;5053206;28;20128;-58
2023/01/01 02:23:28;;;;;;;41.65;18.65;;;13.00;99.90;;;;;;5051080;28;20095;-62
2023/01/01 02:26:10;;;;;;;32.67;17.40;;;13.00;99.90;;;;;;5049472;28;20484;-62
2023/01/01 02:28:44;;;;;;;32.40;16.27;;;13.00;99.90;;;;;;5051966;28;20529;-62
2023/01/01 02:31:11;;;;;;;32.97;16.88;;;12.90;99.90;;;;;;5053771;28;20053;-62
2023/01/01 02:33:38;;;;;;;31.65;15.13;;;12.90;99.90;;;;;;5051893;28;20087;-59
2023/01/01 02:36:05;;;;;;;35.90;15.60;;;13.00;99.90;;;;;;5051777;28;20041;-53
2023/01/01 02:38:32;;;;;;;28.75;14.00;;;13.00;99.90;;;;;;5050035;28;20054;-62
2023/01/01 02:41:00;;;;;;;33.53;14.57;;;12.90;99.90;;;;;;5052900;28;20107;-58
2023/01/01 02:43:27;;;;;;;33.80;13.38;;;13.00;99.90;;;;;;5049916;28;20168;-60
2023/01/01 02:45:55;;;;;;;30.70;12.90;;;13.00;99.90;;;;;;5051408;28;20557;-61
2023/01/01 02:48:37;;;;;;;27.67;11.88;;;13.00;99.90;;;;;;5052398;28;20077;-60
2023/01/01 02:51:04;;;;;;;26.42;11.57;;;13.00;99.90;;;;;;5053295;28;20476;-60
2023/01/01 02:53:33;;;;;;;29.80;11.48;;;13.00;99.90;;;;;;5052015;28;20076;-60
2023/01/01 02:56:02;;;;;;;26.80;11.63;;;13.00;99.90;;;;;;5051252;28;20095;-60
2023/01/01 03:01:21;;;;;;;26.90;10.07;;;13.00;99.90;;;;;;5033050;28;20049;-60
2023/01/01 03:03:52;;;;;;;24.92;10.57;;;13.00;99.90;;;;;;5033368;28;20382;-60
2023/01/01 03:06:22;;;;;;;26.60;8.07;;;13.10;99.90;;;;;;5049437;28;20094;-60
2023/01/01 03:08:51;;;;;;;23.42;8.85;;;13.10;99.90;;;;;;5047885;28;20056;-59
2023/01/01 03:11:19;;;;;;;22.67;8.95;;;13.10;99.90;;;;;;5051843;28;20052;-61
2023/01/01 03:13:49;;;;;;;21.23;7.30;;;13.10;99.90;;;;;;5051954;28;20049;-62
2023/01/01 03:16:18;;;;;;;18.92;7.30;;;13.10;99.90;;;;;;5047426;28;20045;-62
2023/01/01 03:18:50;;;;;;;21.35;6.68;;;13.10;99.90;;;;;;5051059;28;20052;-59
2023/01/01 03:21:18;;;;;;;19.25;5.88;;;13.10;99.90;;;;;;5058355;28;20127;-61
2023/01/01 03:23:46;;;;;;;14.25;5.30;;;13.10;99.90;;;;;;5060161;28;20106;-51
2023/01/01 03:26:13;;;;;;;12.13;5.15;;;13.20;99.90;;;;;;5049134;28;20128;-60
2023/01/01 03:28:43;;;;;;;19.55;4.28;;;13.20;99.90;;;;;;5049447;28;20143;-56
2023/01/01 03:31:10;;;;;;;17.75;4.78;;;13.30;99.90;;;;;;5032668;28;20489;-53
2023/01/01 03:33:38;;;;;;;13.93;4.82;;;13.30;99.90;;;;;;5043800;28;20095;-59
2023/01/01 03:36:08;;;;;;;21.33;4.93;;;13.40;99.90;;;;;;5045798;28;20049;-60
2023/01/01 03:38:37;;;;;;;15.88;4.30;;;13.40;99.90;;;;;;5049628;28;20445;-56
2023/01/01 03:41:05;;;;;;;15.00;3.90;;;13.50;99.90;;;;;;5048933;28;20149;-59
2023/01/01 03:43:36;;;;;;;9.48;3.75;;;13.50;99.90;;;;;;5051792;28;20077;-59
2023/01/01 03:46:03;;;;;;;13.80;3.95;;;13.60;99.90;;;;;;5049905;28;20048;-58
2023/01/01 03:48:54;;;;;;;10.55;3.65;;;13.60;99.90;;;;;;5051654;28;20057;-58
2023/01/01 03:51:21;;;;;;;12.95;3.97;;;13.60;99.90;;;;;;5049803;28;20056;-57
2023/01/01 03:53:48;;;;;;;13.07;3.50;;;13.60;99.90;;;;;;5050720;28;20089;-58
2023/01/01 03:56:17;;;;;;;17.70;3.83;;;13.60;99.90;;;;;;5049105;28;20496;-58
2023/01/01 03:58:47;;;;;;;15.70;3.80;;;13.60;99.90;;;;;;5052514;28;20057;-58
2023/01/01 04:01:15;;;;;;;12.68;3.45;;;13.60;99.90;;;;;;5050728;28;20493;-58
2023/01/01 04:03:42;;;;;;;12.68;3.33;;;13.70;99.90;;;;;;5051373;28;20140;-58
2023/01/01 04:06:09;;;;;;;16.80;3.38;;;13.60;99.90;;;;;;5043780;28;20060;-54
2023/01/01 04:08:37;;;;;;;17.75;3.58;;;13.60;99.90;;;;;;5044825;28;20044;-57
2023/01/01 04:12:00;;;;;;;18.00;3.28;;;13.60;99.90;;;;;;5053373;28;20049;-51
2023/01/01 04:13:52;;;;;;;13.88;3.45;;;13.60;99.90;;;;;;5037922;28;20136;-56
2023/01/01 04:16:19;;;;;;;19.52;3.55;;;13.60;99.90;;;;;;5054306;28;20436;-58
2023/01/01 04:18:46;;;;;;;18.60;3.45;;;13.60;99.90;;;;;;5055184;28;20081;-58
2023/01/01 04:21:13;;;;;;;11.52;3.40;;;13.60;99.90;;;;;;5053821;28;20048;-54
2023/01/01 04:23:41;;;;;;;12.88;2.80;;;13.60;99.90;;;;;;5053905;28;20060;-58
2023/01/01 04:26:12;;;;;;;12.32;4.07;;;13.60;99.90;;;;;;5053518;28;20080;-59
2023/01/01 04:28:39;;;;;;;10.70;3.20;;;13.60;99.90;;;;;;5054573;28;20080;-59
2023/01/01 04:31:06;;;;;;;12.90;3.15;;;13.60;99.90;;;;;;5054217;28;20111;-59
2023/01/01 04:33:32;;;;;;;15.15;3.42;;;13.50;99.90;;;;;;5053342;28;20077;-61
2023/01/01 04:36:04;;;;;;;10.55;2.80;;;13.50;99.90;;;;;;5054185;28;20571;-61
2023/01/01 04:38:32;;;;;;;13.55;3.60;;;13.50;99.90;;;;;;5054370;28;20408;-63
2023/01/01 04:41:00;;;;;;;14.05;3.40;;;13.40;99.90;;;;;;5039867;28;20089;-68
2023/01/01 04:43:27;;;;;;;19.30;3.45;;;13.40;99.90;;;;;;5056465;28;20048;-66
2023/01/01 04:45:57;;;;;;;14.13;3.70;;;13.30;99.90;;;;;;5053125;28;20140;-64
2023/01/01 04:48:24;;;;;;;15.80;3.50;;;13.20;99.90;;;;;;5052287;28;20538;-63
2023/01/01 04:50:56;;;;;;;13.73;3.38;;;13.20;99.90;;;;;;5054576;28;20085;-63
2023/01/01 04:53:22;;;;;;;9.45;3.05;;;13.10;99.90;;;;;;5051678;28;20057;-61
2023/01/01 04:55:49;;;;;;;12.13;3.08;;;13.10;99.90;;;;;;5051883;28;20110;-62
2023/01/01 04:58:17;;;;;;;11.27;2.85;;;13.10;99.90;;;;;;5052564;28;20441;-59
2023/01/01 05:00:47;;;;;;;12.65;2.95;;;13.10;99.90;;;;;;5061374;28;20142;-61
2023/01/01 05:03:14;;;;;;;10.48;2.70;;;13.10;99.90;;;;;;5052375;28;20045;-62
2023/01/01 05:05:41;;;;;;;12.50;3.67;;;13.10;99.90;;;;;;5051306;28;20076;-59
2023/01/01 05:08:08;;;;;;;10.95;2.50;;;13.10;99.90;;;;;;5054667;28;20539;-60
2023/01/01 05:10:35;;;;;;;12.95;2.75;;;13.10;99.90;;;;;;5052897;28;20080;-61
2023/01/01 05:13:01;;;;;;;10.98;2.35;;;13.10;99.90;;;;;;5053679;28;20076;-59
2023/01/01 05:15:29;;;;;;;11.23;3.20;;;13.10;99.90;;;;;;5052600;28;20124;-61
2023/01/01 05:17:56;;;;;;;12.73;2.95;;;13.10;99.90;;;;;;5051772;28;20106;-62
2023/01/01 05:20:23;;;;;;;12.85;2.55;;;13.10;99.90;;;;;;5046773;28;20099;-44
2023/01/01 05:22:50;;;;;;;11.70;3.03;;;13.10;99.90;;;;;;5054693;28;20060;-60
2023/01/01 05:25:17;;;;;;;14.25;2.38;;;13.10;99.90;;;;;;5052089;28;20053;-59
2023/01/01 05:27:44;;;;;;;9.95;2.55;;;13.10;99.90;;;;;;5049025;28;20129;-59
2023/01/01 05:30:11;;;;;;;10.75;2.22;;;13.10;99.90;;;;;;5052135;28;20553;-59
2023/01/01 05:32:40;;;;;;;11.20;2.60;;;13.10;99.90;;;;;;5053681;28;20077;-58
2023/01/01 05:35:07;;;;;;;11.43;2.38;;;13.10;99.90;;;;;;5052894;28;21517;-59
2023/01/01 05:37:34;;;;;;;8.60;2.25;;;13.10;99.90;;;;;;5052558;28;20080;-58
2023/01/01 05:40:00;;;;;;;9.45;1.80;;;13.10;99.90;;;;;;5052910;28;20052;-55
2023/01/01 05:42:27;;;;;;;13.25;2.20;;;13.10;99.90;;;;;;5051193;28;20158;-57
2023/01/01 05:44:54;;;;;;;9.02;1.48;;;13.10;99.90;;;;;;5052973;28;20048;-52
2023/01/01 05:47:21;;;;;;;6.72;2.10;;;13.10;99.90;;;;;;5051529;28;20048;-58
2023/01/01 05:49:49;;;;;;;12.05;2.13;;;13.00;99.90;;;;;;5053552;28;20497;-59
2023/01/01 05:52:16;;;;;;;8.63;1.70;;;13.00;99.90;;;;;;5052249;28;20083;-57
2023/01/01 05:54:43;;;;;;;8.45;1.80;;;12.90;99.90;;;;;;5052718;28;20089;-59
2023/01/01 05:57:09;;;;;;;5.57;1.40;;;13.00;99.90;;;;;;5052657;28;20041;-59
2023/01/01 05:59:36;;;;;;;8.75;1.90;;;13.00;99.90;;;;;;5050086;28;20382;-53
2023/01/01 06:02:03;;;;;;;12.77;1.92;;;12.90;99.90;;;;;;5052443;28;20100;-59
2023/01/01 06:04:30;;;;;;;9.73;2.03;;;12.90;99.90;;;;;;5045516;28;20049;-57
2023/01/01 06:06:58;;;;;;;7.03;1.95;;;12.80;99.90;;;;;;5050486;28;20128;-58
2023/01/01 06:09:25;;;;;;;8.48;1.70;;;12.80;99.90;;;;;;5053262;28;20052;-59
2023/01/01 06:11:51;;;;;;;7.38;1.85;;;12.80;99.90;;;;;;5052376;28;20052;-59
2023/01/01 06:14:18;;;;;;;7.38;1.67;;;12.70;99.90;;;;;;5052105;28;20102;-59
2023/01/01 06:16:45;;;;;;;8.70;1.65;;;12.70;99.90;;;;;;5050342;28;20053;-59
2023/01/01 06:19:12;;;;;;;9.77;1.73;;;12.70;99.90;;;;;;5052468;28;20085;-59
2023/01/01 06:21:38;;;;;;;6.32;1.60;;;12.60;99.90;;;;;;5052810;28;20489;-58
2023/01/01 06:24:08;;;;;;;8.15;1.55;;;12.60;99.90;;;;;;5052255;28;20057;-59
2023/01/01 06:26:35;;;;;;;5.00;1.45;;;12.60;99.90;;;;;;5051757;28;20041;-59
2023/01/01 06:29:01;;;;;;;4.90;1.20;;;12.60;99.90;;;;;;5051216;28;20089;-59
2023/01/01 06:31:29;;;;;;;7.72;1.40;;;12.50;99.90;;;;;;5052034;28;20493;-59
2023/01/01 06:33:55;;;;;;;6.57;1.50;;;12.50;99.90;;;;;;5051829;28;20049;-58
2023/01/01 06:36:23;;;;;;;7.82;2.00;;;12.50;99.90;;;;;;5050929;28;20037;-60
2023/01/01 06:38:51;;;;;;;5.18;1.38;;;12.50;99.90;;;;;;5050779;28;20123;-59
2023/01/01 06:41:20;;;;;;;8.80;1.90;;;12.50;99.90;;;;;;5051345;28;20134;-59
2023/01/01 06:43:47;;;;;;;8.95;1.65;;;12.50;99.90;;;;;;5052071;28;20091;-56
2023/01/01 06:46:15;;;;;;;5.70;1.42;;;12.40;99.90;;;;;;5049717;28;20509;-59
2023/01/01 06:48:42;;;;;;;8.30;1.90;;;12.40;99.90;;;;;;5052675;28;20137;-59
2023/01/01 06:51:10;;;;;;;7.03;1.88;;;12.40;99.90;;;;;;5052594;28;20099;-59
2023/01/01 06:53:37;;;;;;;9.13;2.05;;;12.40;99.90;;;;;;5049925;28;20048;-59
2023/01/01 06:56:04;;;;;;;14.60;2.50;;;12.40;99.90;;;;;;5050474;28;20519;-58
2023/01/01 06:58:32;;;;;;;13.30;2.10;;;12.30;99.90;;;;;;5051377;28;20092;-59
2023/01/01 07:01:09;;;;;;;11.10;1.95;;;12.30;99.90;;;;;;5048674;28;20501;-58
2023/01/01 07:03:36;;;;;;;15.93;2.60;;;12.30;99.90;;;;;;5049739;28;20120;-56
2023/01/01 07:06:03;;;;;;;10.27;2.20;;;12.30;99.90;;;;;;5051142;28;20076;-59
2023/01/01 07:08:30;;;;;;;11.20;2.00;;;12.30;99.90;;;;;;5049137;28;20053;-55
2023/01/01 07:10:57;;;;;;;9.35;2.03;;;12.30;99.90;;;;;;5051085;28;20061;-60
2023/01/01 07:13:24;;;;;;;8.80;2.28;;;12.20;99.90;;;;;;5048753;28;20546;-58
2023/01/01 07:15:52;;;;;;;19.48;2.85;;;12.20;99.90;;;;;;5048857;28;20087;-51
2023/01/01 07:18:19;;;;;;;14.65;2.47;;;12.20;99.90;;;;;;5047608;28;20137;-60
2023/01/01 07:20:48;;;;;;;15.20;2.45;;;12.20;99.90;;;;;;5051226;28;20044;-60
2023/01/01 07:23:15;;;;;;;10.20;2.40;;;12.20;99.90;;;;;;5048264;28;20052;-59
2023/01/01 07:25:42;;;;;;;11.55;2.58;;;12.10;99.90;;;;;;5049483;28;20085;-60
2023/01/01 07:28:09;;;;;;;15.48;2.15;;;12.10;99.90;;;;;;5049703;28;20057;-60
2023/01/01 07:30:36;;;;;;;14.18;2.10;;;12.10;99.90;;;;;;5048742;28;20816;-61
2023/01/01 07:33:04;;;;;;;13.30;2.20;;;12.10;99.90;;;;;;5046519;28;20053;-60
2023/01/01 07:35:31;;;;;;;11.32;2.42;;;12.10;99.90;;;;;;5051797;28;20470;-59
2023/01/01 07:37:57;;;;;;;13.55;2.70;;;12.10;99.90;;;;;;5043601;28;20045;-60
2023/01/01 07:40:24;;;;;;;12.27;2.47;;;12.00;99.90;;;;;;5051338;28;20099;-60
2023/01/01 07:42:51;;;;;;;16.65;2.60;;;12.10;99.90;;;;;;5042575;28;20471;-60
2023/01/01 07:45:18;;;;;;;14.45;2.65;;;12.00;99.90;;;;;;5051163;28;20049;-60
2023/01/01 07:47:53;;;;;;;15.70;2.10;;;12.00;99.90;;;;;;5050856;28;20130;-60
2023/01/01 07:50:21;;;;;;;12.25;2.38;;;12.00;99.90;;;;;;5047892;28;20052;-60
2023/01/01 07:52:48;;;;;;;19.25;2.58;;;12.00;99.90;;;;;;5048518;28;20087;-60
2023/01/01 07:55:15;;;;;;;15.38;2.10;;;12.00;99.90;;;;;;5051258;28;20088;-60
2023/01/01 07:57:42;;;;;;;13.52;2.53;;;12.00;99.90;;;;;;5049955;28;20468;-60
2023/01/01 08:00:10;;;;;;;12.25;2.15;;;11.90;99.90;;;;;;5057790;28;20053;-60
2023/01/01 08:02:36;;;;;;;12.82;1.92;;;12.00;99.90;;;;;;5050159;28;20417;-60
2023/01/01 08:05:04;;;;;;;10.50;2.47;;;12.00;99.90;;;;;;5049361;28;20084;-60
2023/01/01 08:07:32;;;;;;;13.50;2.00;;;11.90;99.90;;;;;;5051144;28;20083;-60
2023/01/01 08:09:59;;;;;;;16.98;2.63;;;11.90;99.90;;;;;;5049406;28;20057;-57
2023/01/01 08:12:26;;;;;;;9.98;1.83;;;11.90;99.90;;;;;;5049335;28;20068;-60
2023/01/01 08:14:52;;;;;;;12.20;2.05;;;11.90;99.90;;;;;;5050492;28;20045;-60
2023/01/01 08:17:19;;;;;;;10.65;1.95;;;11.80;99.90;;;;;;5048496;28;20096;-60
2023/01/01 08:19:48;;;;;;;13.45;2.40;;;11.80;99.90;;;;;;5052268;28;20085;-60
2023/01/01 08:22:15;;;;;;;17.50;2.35;;;11.80;99.90;;;;;;5050464;28;20057;-59
2023/01/01 08:24:43;;;;;;;15.10;2.03;;;11.80;99.90;;;;;;5050775;28;20061;-60
2023/01/01 08:27:10;;;;;;;16.33;2.45;;;11.80;99.90;;;;;;5048484;28;20127;-60
2023/01/01 08:29:37;;;;;;;14.07;2.53;;;11.80;99.90;;;;;;5049252;28;20073;-61
2023/01/01 08:32:04;;;;;;;16.52;2.50;;;11.70;99.90;;;;;;5047713;28;20131;-61
2023/01/01 08:34:31;;;;;;;14.68;2.15;;;11.70;99.90;;;;;;5051226;28;20457;-61
2023/01/01 08:36:58;;;;;;;12.93;2.53;;;11.70;99.90;;;;;;5051496;28;20057;-60
2023/01/01 08:39:25;;;;;;;15.70;2.42;;;11.70;99.90;;;;;;5048067;28;20048;-61
2023/01/01 08:41:53;;;;;;;12.75;2.38;;;11.70;99.90;;;;;;5049137;28;20094;-61
2023/01/01 08:44:20;;;;;;;14.85;2.30;;;11.70;99.90;;;;;;5051354;28;20091;-58
2023/01/01 08:46:47;;;;;;;14.88;2.60;;;11.70;99.90;;;;;;5050646;28;20512;-61
2023/01/01 08:49:14;;;;;;;12.10;2.40;;;11.70;99.90;;;;;;5049981;28;20071;-61
2023/01/01 08:51:40;;;;;;;14.35;2.53;;;11.70;99.90;;;;;;5049933;28;20056;-61
2023/01/01 08:54:07;;;;;;;12.95;2.22;;;11.60;99.90;;;;;;5054643;28;20061;-61
2023/01/01 08:56:36;;;;;;;15.30;2.10;;;11.70;99.90;;;;;;5055592;28;20045;-61
2023/01/01 08:59:04;;;;;;;14.32;1.92;;;11.60;99.90;;;;;;5051648;28;20049;-60
2023/01/01 09:01:31;;;;;;;11.77;1.95;;;11.60;99.90;;;;;;5053571;28;20048;-60
2023/01/01 09:03:58;;;;;;;13.55;2.30;;;11.60;99.90;;;;;;5051730;28;20488;-62
2023/01/01 09:06:25;;;;;;;12.90;2.22;;;11.60;99.90;;;;;;5053213;28;20053;-57
2023/01/01 09:08:52;;;;;;;15.52;2.10;;;11.60;99.90;;;;;;5053852;28;20456;-52
2023/01/01 09:11:22;;;;;;;14.75;2.45;;;11.60;99.90;;;;;;5041906;28;20104;-62
2023/01/01 09:13:49;;;;;;;13.25;2.58;;;11.60;99.90;;;;;;5048295;28;20049;-56
2023/01/01 09:16:17;;;;;;;17.33;2.63;;;11.60;99.90;;;;;;5052345;28;20689;-61
2023/01/01 09:18:44;;;;;;;11.23;2.17;;;11.60;99.90;;;;;;5050884;28;20695;-60
2023/01/01 09:21:11;;;;;;;15.68;2.45;;;11.60;99.90;;;;;;5053192;28;20088;-60
2023/01/01 09:23:37;;;;;;;16.38;2.55;;;11.60;99.90;;;;;;5053251;28;20084;-59
2023/01/01 09:26:04;;;;;;;20.98;2.80;;;11.60;99.90;;;;;;5053757;28;20053;-61
2023/01/01 09:28:31;;;;;;;15.60;1.77;;;11.60;99.90;;;;;;5053688;28;20081;-57
2023/01/01 09:30:58;;;;;;;17.98;2.40;;;11.60;99.90;;;;;;5053791;28;20098;-61
2023/01/01 09:33:26;;;;;;;19.98;2.25;;;11.70;99.90;;;;;;5052978;28;20059;-60
2023/01/01 09:35:53;;;;;;;16.70;2.88;;;11.60;99.90;;;;;;5053267;28;20563;-59
2023/01/01 09:38:20;;;;;;;17.50;2.85;;;11.60;99.90;;;;;;5053483;28;20098;-60
2023/01/01 09:40:53;;;;;;;14.88;3.00;;;11.60;99.90;;;;;;5052961;28;20433;-62
2023/01/01 09:43:25;;;;;;;20.00;3.10;;;11.60;99.90;;;;;;5047371;28;20124;-47
2023/01/01 09:45:56;;;;;;;19.52;2.92;;;11.70;99.90;;;;;;5051623;28;20081;-60
2023/01/01 09:48:23;;;;;;;14.97;3.13;;;11.60;99.90;;;;;;5051143;28;20118;-60
2023/01/01 09:50:51;;;;;;;18.90;2.90;;;11.70;99.90;;;;;;5059085;28;20083;-58
2023/01/01 09:53:20;;;;;;;15.07;2.70;;;11.70;99.90;;;;;;5069357;28;20636;-61
2023/01/01 09:55:48;;;;;;;15.00;2.20;;;11.70;99.90;;;;;;5067611;28;20469;-60
2023/01/01 09:58:15;;;;;;;18.60;3.00;;;11.70;99.90;;;;;;5051285;28;20445;-60
2023/01/01 10:00:43;;;;;;;18.58;2.72;;;11.70;99.90;;;;;;5051988;28;20135;-61
2023/01/01 10:03:30;;;;;;;16.52;2.58;;;11.70;99.90;;;;;;5043047;28;20115;-61
2023/01/01 10:06:01;;;;;;;20.48;2.45;;;11.70;99.90;;;;;;5052018;28;20087;-60
2023/01/01 10:08:34;;;;;;;17.58;2.30;;;11.70;99.90;;;;;;5052579;28;20055;-55
2023/01/01 10:11:05;;;;;;;16.63;2.60;;;11.70;99.90;;;;;;5051768;28;20390;-61
2023/01/01 10:13:34;;;;;;;16.27;3.38;;;11.70;99.90;;;;;;5050785;28;20053;-58
2023/01/01 10:16:04;;;;;;;17.50;2.47;;;11.60;99.90;;;;;;5051773;28;20080;-61
2023/01/01 10:18:33;;;;;;;14.70;2.35;;;11.60;99.90;;;;;;5051058;28;20045;-61
2023/01/01 10:21:06;;;;;;;13.95;2.60;;;11.60;99.90;;;;;;5049197;28;20158;-56
2023/01/01 10:23:35;;;;;;;14.27;2.35;;;11.70;99.90;;;;;;5050028;28;20409;-61
2023/01/01 10:26:05;;;;;;;14.55;2.20;;;11.70;99.90;;;;;;5052673;28;20132;-63
2023/01/01 10:28:35;;;;;;;17.00;3.08;;;11.60;99.90;;;;;;5050471;28;20099;-57
2023/01/01 10:31:13;;;;;;;19.80;3.40;;;11.70;99.90;;;;;;5052530;28;20084;-58
2023/01/01 10:33:40;;;;;;;14.48;3.03;;;11.70;99.90;;;;;;5050161;28;20525;-60
2023/01/01 10:36:09;;;;;;;17.50;2.85;;;11.70;99.90;;;;;;5052606;28;20049;-62
2023/01/01 10:38:36;;;;;;;17.30;2.70;;;11.70;99.90;;;;;;5051658;28;20132;-57
2023/01/01 10:41:05;;;;;;;18.17;2.30;;;11.80;99.90;;;;;;5053255;28;20107;-62
2023/01/01 10:43:32;;;;;;;14.75;2.50;;;11.80;99.90;;;;;;5048689;28;20489;-56
2023/01/01 10:46:00;;;;;;;13.25;2.28;;;11.90;99.90;;;;;;5051351;28;20049;-62
2023/01/01 10:48:27;;;;;;;13.52;2.35;;;11.80;99.90;;;;;;5051442;28;20109;-61
2023/01/01 10:50:55;;;;;;;11.77;2.17;;;12.00;99.90;;;;;;5050550;28;20106;-60
2023/01/01 10:53:25;;;;;;;11.13;1.88;;;12.00;99.90;;;;;;5055976;28;20091;-62
2023/01/01 10:55:59;;;;;;;17.85;2.88;;;12.00;99.90;;;;;;5052018;28;20110;-61
2023/01/01 10:58:27;;;;;;;17.40;2.55;;;12.00;99.90;;;;;;5046107;28;20073;-61
2023/01/01 11:01:03;;;;;;;19.38;3.03;;;12.10;99.90;;;;;;5052117;28;20049;-61
2023/01/01 11:03:30;;;;;;;17.52;3.00;;;12.20;99.90;;;;;;5049484;28;20045;-62
2023/01/01 11:06:09;;;;;;;15.05;2.45;;;12.10;99.90;;;;;;5051523;28;20194;-61
2023/01/01 11:08:38;;;;;;;15.48;2.63;;;12.10;99.90;;;;;;5048543;28;20072;-61
2023/01/01 11:11:05;;;;;;;19.80;2.67;;;12.20;99.90;;;;;;5050945;28;20099;-61
2023/01/01 11:13:32;;;;;;;16.65;2.75;;;12.10;99.90;;;;;;5047775;28;20052;-61
2023/01/01 11:15:59;;;;;;;25.27;3.28;;;12.20;99.90;;;;;;5049399;28;20385;-60
2023/01/01 11:18:27;;;;;;;18.17;3.13;;;12.10;99.90;;;;;;5052838;28;20049;-62
2023/01/01 11:20:54;;;;;;;16.67;3.35;;;12.10;99.90;;;;;;5052160;28;20056;-61
2023/01/01 11:23:29;;;;;;;15.18;2.65;;;12.10;99.90;;;;;;5050276;28;20041;-61
2023/01/01 11:26:02;;;;;;;20.70;2.92;;;12.10;99.90;;;;;;5048220;28;20148;-61
2023/01/01 11:28:30;;;;;;;18.25;2.58;;;12.10;99.90;;;;;;5047277;28;20489;-61
2023/01/01 11:31:10;;;;;;;19.10;2.90;;;12.10;99.90;;;;;;5051456;28;20413;-61
2023/01/01 11:33:38;;;;;;;15.43;2.95;;;12.10;99.90;;;;;;5051645;28;20401;-61
2023/01/01 11:36:06;;;;;;;15.07;2.78;;;12.10;99.90;;;;;;5050265;28;20048;-61
2023/01/01 11:38:33;;;;;;;21.25;2.47;;;12.10;99.90;;;;;;5049398;28;20045;-60
2023/01/01 11:41:04;;;;;;;16.65;2.70;;;12.20;99.90;;;;;;5050657;28;20057;-62
2023/01/01 11:43:33;;;;;;;16.58;2.65;;;12.20;99.90;;;;;;5045691;28;20479;-62
2023/01/01 11:46:00;;;;;;;19.55;2.95;;;12.20;99.90;;;;;;5050559;28;20060;-62
2023/01/01 11:48:28;;;;;;;19.27;3.25;;;12.20;99.90;;;;;;5052085;28;20493;-62
2023/01/01 11:50:56;;;;;;;19.92;3.17;;;12.20;99.90;;;;;;5050441;28;20110;-62
2023/01/01 11:53:29;;;;;;;15.73;2.85;;;12.20;99.90;;;;;;5049670;28;20106;-62
2023/01/01 11:56:00;;;;;;;15.77;2.42;;;12.30;99.90;;;;;;5051213;28;20053;-53
2023/01/01 11:58:30;;;;;;;15.15;2.53;;;12.30;99.90;;;;;;5046609;28;20071;-62
2023/01/01 12:00:57;;;;;;;22.75;3.08;;;12.30;99.90;;;;;;5052086;28;20393;-59
2023/01/01 12:03:25;;;;;;;16.92;2.90;;;12.40;99.90;;;;;;5051380;28;20088;-61
2023/01/01 12:05:55;;;;;;;20.67;3.22;;;12.40;99.90;;;;;;5051256;28;20421;-58
2023/01/01 12:08:47;;;;;;;21.85;3.13;;;12.50;99.90;;;;;;5045436;28;20048;-59
2023/01/01 12:11:17;;;;;;;17.35;2.85;;;12.50;99.90;;;;;;5043071;28;20183;-61
2023/01/01 12:13:49;;;;;;;18.95;2.58;;;12.50;99.90;;;;;;5051190;28;20052;-60
2023/01/01 12:16:18;;;;;;;18.35;3.17;;;12.50;99.90;;;;;;5051293;28;20213;-56
2023/01/01 12:18:46;;;;;;;22.38;2.92;;;12.50;99.90;;;;;;5046788;28;20098;-60
2023/01/01 12:21:16;;;;;;;17.83;3.00;;;12.50;99.90;;;;;;5049784;28;20055;-61
2023/01/01 12:23:43;;;;;;;26.88;3.92;;;12.40;99.90;;;;;;5048870;28;20464;-60
2023/01/01 12:26:16;;;;;;;15.38;2.10;;;12.40;99.90;;;;;;5050245;28;20079;-59
2023/01/01 12:28:48;;;;;;;14.95;2.65;;;12.40;99.90;;;;;;5055241;28;20059;-60
2023/01/01 12:31:19;;;;;;;20.35;2.90;;;12.40;99.90;;;;;;5054611;28;20080;-60
2023/01/01 12:34:01;;;;;;;18.80;3.13;;;12.40;99.90;;;;;;5055439;28;20111;-61
2023/01/01 12:36:34;;;;;;;12.57;2.53;;;12.40;99.90;;;;;;5044488;28;20382;-62
2023/01/01 12:39:36;;;;;;;13.98;2.35;;;12.40;99.90;;;;;;5053526;28;20077;-61
2023/01/01 12:42:06;;;;;;;16.25;3.58;;;12.40;99.90;;;;;;5054096;28;20049;-62
2023/01/01 12:44:38;;;;;;;15.02;2.70;;;12.40;99.90;;;;;;5050522;28;20654;-62
2023/01/01 12:47:07;;;;;;;19.77;2.60;;;12.50;99.90;;;;;;5051654;28;20146;-60
2023/01/01 12:49:40;;;;;;;17.45;2.95;;;12.30;99.90;;;;;;5050699;28;20471;-62